Auburn, IA (51433)

8:58 AM CDT on August 31, 2015 (GMT -0500)
Midwest | | Change Station
CLOSE
Current Station
Personal Weather Station
Location: Lake City, IA
Elevation: 1201 ft
Nearby Weather Stations
Active Advisory: Special Statement

Elev 1201 ft 42.27 °N, 94.74 °W | Updated 7 minutes ago

Fog
Fog
65.3 °F
Feels Like 65.3 °F
N
0.0
Wind Variable Wind from SE
Gusts 0.0 mph

Today
High -- | Low -- °F
--% Chance of Precip.
Yesterday
High -- | Low -- °F
Precip. -- in
6:43 AM 7:55 PM
Waning Gibbous, 95% visible
Pressure 29.98 in
Visibility 0.2 miles
Clouds Overcast 200 ft
Dew Point 65 °F
Humidity 98%
Rainfall 0.02 in
Snow Depth Not available.
UV 0.7 out of 12
Pollen 10.60 out of 12
Air Quality Not available.
Flu Activity Not available.
METAR KCIN 311315Z AUTO 17004KT M1/4SM FG OVC002 17/17 A2998 RMK AO2
Pressure 29.98 in
Visibility 0.2 miles
Clouds Overcast 200 ft
Dew Point 65 °F
Humidity 98%
Rainfall 0.02 in
Snow Depth Not available.
UV 0.7 out of 12
Pollen 10.60 out of 12
Air Quality Not available.
Flu Activity Not available.
METAR KCIN 311315Z AUTO 17004KT M1/4SM FG OVC002 17/17 A2998 RMK AO2

10-Day Weather Forecast

×

Almanac

Astronomy

Aug. 31, 2015 Rise Set
Actual Time
Civil Twilight
Nautical Twilight
Astronomical Twilight
Moon
Length of Visible Light
Length of Day
Tomorrow will be .
, % of the Moon is Illuminated

Today's Extremes

State Highs State Lows

Community

WunderPhotos

Upload Photos

1,851,240 photos uploaded!

WunderBlogs® & News

Nearby

Air Quality

  Air Quality AQ Index Pollutant
Not available.

Snow Depth

Station Depth Elevation

Earthquake Activity

City Distance Mag. Time & Date
Minimum magnitude displayed is 2.5.

Coastal Water Temperatures

Place Temperature

Stations

Nearby Weather Stations

Station Location Temp. Windchill Dew Point Humidity Wind Precip. Elev Updated Type
                   
Special Statement
Statement as of 7:40 AM CDT on August 31, 2015

... Areas of fog through the early morning hours...

Fog will be prevalent in many areas until around 900 am or 1000 am and
will be dense in spots. Visibilities may be down to a quarter
mile at times until conditions begin improving by mid morning. Motorists
are urged to slow down... use low beam headlights and allow for
extra stopping distance between vehicles.


Small

740 am CDT Mon Aug 31 2015

... Areas of fog through the early morning hours...

Fog will be prevalent in many areas until around 900 am or 1000 am and
will be dense in spots. Visibilities may be down to a quarter
mile at times until conditions begin improving by mid morning. Motorists
are urged to slow down... use low beam headlights and allow for
extra stopping distance between vehicles.


Small